sensor_id;sensor_type;location;lat;lon;timestamp;temperature;humidity
46366;DHT22;32073;49.166;8.076;2023-03-08T00:02:22;10.10;44.00
46366;DHT22;32073;49.166;8.076;2023-03-08T00:06:23;10.00;43.90
46366;DHT22;32073;49.166;8.076;2023-03-08T00:10:26;9.90;43.80
46366;DHT22;32073;49.166;8.076;2023-03-08T00:14:26;9.80;43.90
46366;DHT22;32073;49.166;8.076;2023-03-08T00:18:27;9.70;44.00
46366;DHT22;32073;49.166;8.076;2023-03-08T00:22:27;9.70;44.10
46366;DHT22;32073;49.166;8.076;2023-03-08T00:26:28;9.70;44.10
46366;DHT22;32073;49.166;8.076;2023-03-08T00:30:29;9.60;44.10
46366;DHT22;32073;49.166;8.076;2023-03-08T00:34:29;9.60;44.10
46366;DHT22;32073;49.166;8.076;2023-03-08T00:38:32;9.50;44.00
46366;DHT22;32073;49.166;8.076;2023-03-08T00:42:33;9.50;44.00
46366;DHT22;32073;49.166;8.076;2023-03-08T00:46:34;9.50;44.00
46366;DHT22;32073;49.166;8.076;2023-03-08T00:50:35;9.40;44.00
46366;DHT22;32073;49.166;8.076;2023-03-08T00:54:36;9.40;44.00
46366;DHT22;32073;49.166;8.076;2023-03-08T00:58:37;9.40;44.10
46366;DHT22;32073;49.166;8.076;2023-03-08T01:02:39;9.30;44.20
46366;DHT22;32073;49.166;8.076;2023-03-08T01:06:40;9.30;44.30
46366;DHT22;32073;49.166;8.076;2023-03-08T01:10:50;9.30;44.40
46366;DHT22;32073;49.166;8.076;2023-03-08T01:14:57;9.30;44.40
46366;DHT22;32073;49.166;8.076;2023-03-08T01:18:59;9.30;44.40
46366;DHT22;32073;49.166;8.076;2023-03-08T01:23:00;9.30;44.40
46366;DHT22;32073;49.166;8.076;2023-03-08T01:27:01;9.40;44.40
46366;DHT22;32073;49.166;8.076;2023-03-08T01:31:07;9.40;44.40
46366;DHT22;32073;49.166;8.076;2023-03-08T01:35:10;9.40;44.40
46366;DHT22;32073;49.166;8.076;2023-03-08T01:39:11;9.40;44.40
46366;DHT22;32073;49.166;8.076;2023-03-08T01:43:27;9.40;44.50
46366;DHT22;32073;49.166;8.076;2023-03-08T01:47:31;9.40;44.20
46366;DHT22;32073;49.166;8.076;2023-03-08T01:55:54;9.50;44.20
46366;DHT22;32073;49.166;8.076;2023-03-08T01:59:56;9.40;44.20
46366;DHT22;32073;49.166;8.076;2023-03-08T02:04:04;9.50;44.20
46366;DHT22;32073;49.166;8.076;2023-03-08T02:08:05;9.40;44.10
46366;DHT22;32073;49.166;8.076;2023-03-08T02:12:09;9.30;44.00
46366;DHT22;32073;49.166;8.076;2023-03-08T02:16:12;9.20;43.90
46366;DHT22;32073;49.166;8.076;2023-03-08T02:20:32;9.10;43.90
46366;DHT22;32073;49.166;8.076;2023-03-08T02:24:35;9.00;43.90
46366;DHT22;32073;49.166;8.076;2023-03-08T02:28:36;8.90;44.10
46366;DHT22;32073;49.166;8.076;2023-03-08T02:32:37;8.90;44.20
46366;DHT22;32073;49.166;8.076;2023-03-08T02:36:37;8.80;44.20
46366;DHT22;32073;49.166;8.076;2023-03-08T02:40:38;8.70;44.20
46366;DHT22;32073;49.166;8.076;2023-03-08T02:44:39;8.70;44.30
46366;DHT22;32073;49.166;8.076;2023-03-08T02:48:40;8.70;44.40
46366;DHT22;32073;49.166;8.076;2023-03-08T02:52:41;8.70;44.40
46366;DHT22;32073;49.166;8.076;2023-03-08T02:56:41;8.70;44.40
46366;DHT22;32073;49.166;8.076;2023-03-08T03:00:42;8.60;44.40
46366;DHT22;32073;49.166;8.076;2023-03-08T03:04:42;8.60;44.40
46366;DHT22;32073;49.166;8.076;2023-03-08T03:08:43;8.60;44.50
46366;DHT22;32073;49.166;8.076;2023-03-08T03:12:44;8.60;44.60
46366;DHT22;32073;49.166;8.076;2023-03-08T03:16:45;8.60;44.60
46366;DHT22;32073;49.166;8.076;2023-03-08T03:20:45;8.60;44.60
46366;DHT22;32073;49.166;8.076;2023-03-08T03:24:48;8.60;44.50
46366;DHT22;32073;49.166;8.076;2023-03-08T03:28:49;8.50;44.50
46366;DHT22;32073;49.166;8.076;2023-03-08T03:32:53;8.50;44.60
46366;DHT22;32073;49.166;8.076;2023-03-08T03:36:54;8.50;44.70
46366;DHT22;32073;49.166;8.076;2023-03-08T03:41:09;8.50;44.80
46366;DHT22;32073;49.166;8.076;2023-03-08T03:45:12;8.50;45.00
46366;DHT22;32073;49.166;8.076;2023-03-08T03:49:13;8.50;44.90
46366;DHT22;32073;49.166;8.076;2023-03-08T03:53:13;8.50;45.00
46366;DHT22;32073;49.166;8.076;2023-03-08T03:57:14;8.50;45.00
46366;DHT22;32073;49.166;8.076;2023-03-08T04:01:41;8.50;45.00
46366;DHT22;32073;49.166;8.076;2023-03-08T04:05:41;8.60;45.10
46366;DHT22;32073;49.166;8.076;2023-03-08T04:09:42;8.60;45.10
46366;DHT22;32073;49.166;8.076;2023-03-08T04:13:43;8.60;45.10
46366;DHT22;32073;49.166;8.076;2023-03-08T04:17:44;8.60;45.10
46366;DHT22;32073;49.166;8.076;2023-03-08T04:21:44;8.60;45.10
46366;DHT22;32073;49.166;8.076;2023-03-08T04:25:46;8.60;45.10
46366;DHT22;32073;49.166;8.076;2023-03-08T04:29:46;8.60;45.10
46366;DHT22;32073;49.166;8.076;2023-03-08T04:33:48;8.60;45.10
46366;DHT22;32073;49.166;8.076;2023-03-08T04:37:49;8.60;45.20
46366;DHT22;32073;49.166;8.076;2023-03-08T04:41:49;8.60;45.20
46366;DHT22;32073;49.166;8.076;2023-03-08T04:45:50;8.60;45.20
46366;DHT22;32073;49.166;8.076;2023-03-08T04:49:51;8.70;45.30
46366;DHT22;32073;49.166;8.076;2023-03-08T04:53:52;8.70;45.20
46366;DHT22;32073;49.166;8.076;2023-03-08T04:57:53;8.70;45.30
46366;DHT22;32073;49.166;8.076;2023-03-08T05:01:53;8.70;45.30
46366;DHT22;32073;49.166;8.076;2023-03-08T05:05:54;8.70;45.40
46366;DHT22;32073;49.166;8.076;2023-03-08T05:09:55;8.70;45.40
46366;DHT22;32073;49.166;8.076;2023-03-08T05:13:57;8.70;45.40
46366;DHT22;32073;49.166;8.076;2023-03-08T05:17:58;8.70;45.40
46366;DHT22;32073;49.166;8.076;2023-03-08T05:21:59;8.80;45.50
46366;DHT22;32073;49.166;8.076;2023-03-08T05:26:01;8.80;45.50
46366;DHT22;32073;49.166;8.076;2023-03-08T05:30:04;8.90;45.60
46366;DHT22;32073;49.166;8.076;2023-03-08T05:34:05;8.90;45.60
46366;DHT22;32073;49.166;8.076;2023-03-08T05:38:06;8.90;45.50
46366;DHT22;32073;49.166;8.076;2023-03-08T05:42:06;8.90;45.50
46366;DHT22;32073;49.166;8.076;2023-03-08T05:46:11;8.90;45.50
46366;DHT22;32073;49.166;8.076;2023-03-08T05:50:15;8.90;45.50
46366;DHT22;32073;49.166;8.076;2023-03-08T05:54:16;8.90;45.40
46366;DHT22;32073;49.166;8.076;2023-03-08T05:58:17;8.90;45.40
46366;DHT22;32073;49.166;8.076;2023-03-08T06:02:18;8.90;45.40
46366;DHT22;32073;49.166;8.076;2023-03-08T06:06:20;8.90;45.40
46366;DHT22;32073;49.166;8.076;2023-03-08T06:10:22;8.90;45.50
46366;DHT22;32073;49.166;8.076;2023-03-08T06:14:23;8.90;45.50
46366;DHT22;32073;49.166;8.076;2023-03-08T06:18:25;8.90;45.60
46366;DHT22;32073;49.166;8.076;2023-03-08T06:22:26;8.90;45.80
46366;DHT22;32073;49.166;8.076;2023-03-08T06:26:26;8.90;45.80
46366;DHT22;32073;49.166;8.076;2023-03-08T06:30:27;9.00;45.90
46366;DHT22;32073;49.166;8.076;2023-03-08T06:34:28;9.00;46.00
46366;DHT22;32073;49.166;8.076;2023-03-08T06:38:30;9.00;46.00
46366;DHT22;32073;49.166;8.076;2023-03-08T06:42:31;9.00;46.10
46366;DHT22;32073;49.166;8.076;2023-03-08T06:46:32;9.10;46.20
46366;DHT22;32073;49.166;8.076;2023-03-08T06:50:33;9.10;46.20
46366;DHT22;32073;49.166;8.076;2023-03-08T06:54:34;9.10;46.30
46366;DHT22;32073;49.166;8.076;2023-03-08T06:58:35;9.10;46.40
46366;DHT22;32073;49.166;8.076;2023-03-08T07:02:36;9.20;46.50
46366;DHT22;32073;49.166;8.076;2023-03-08T07:06:37;9.10;46.50
46366;DHT22;32073;49.166;8.076;2023-03-08T07:10:38;9.10;46.50
46366;DHT22;32073;49.166;8.076;2023-03-08T07:14:38;9.00;46.60
46366;DHT22;32073;49.166;8.076;2023-03-08T07:18:40;9.00;46.70
46366;DHT22;32073;49.166;8.076;2023-03-08T07:22:41;9.00;46.90
46366;DHT22;32073;49.166;8.076;2023-03-08T07:26:43;9.00;47.10
46366;DHT22;32073;49.166;8.076;2023-03-08T07:30:47;9.00;47.20
46366;DHT22;32073;49.166;8.076;2023-03-08T07:34:49;9.00;47.60
46366;DHT22;32073;49.166;8.076;2023-03-08T07:38:49;9.00;47.50
46366;DHT22;32073;49.166;8.076;2023-03-08T07:42:50;8.90;47.50
46366;DHT22;32073;49.166;8.076;2023-03-08T07:46:51;8.90;47.60
46366;DHT22;32073;49.166;8.076;2023-03-08T07:50:51;8.90;47.80
46366;DHT22;32073;49.166;8.076;2023-03-08T07:54:52;8.90;47.80
46366;DHT22;32073;49.166;8.076;2023-03-08T07:58:55;8.90;47.90
46366;DHT22;32073;49.166;8.076;2023-03-08T08:02:59;8.90;48.20
46366;DHT22;32073;49.166;8.076;2023-03-08T08:06:59;8.90;48.10
46366;DHT22;32073;49.166;8.076;2023-03-08T08:11:00;9.00;48.30
46366;DHT22;32073;49.166;8.076;2023-03-08T08:15:01;8.90;48.30
46366;DHT22;32073;49.166;8.076;2023-03-08T08:19:02;9.00;48.50
46366;DHT22;32073;49.166;8.076;2023-03-08T08:23:06;9.00;48.60
46366;DHT22;32073;49.166;8.076;2023-03-08T08:27:06;9.00;48.80
46366;DHT22;32073;49.166;8.076;2023-03-08T08:31:10;9.10;48.70
46366;DHT22;32073;49.166;8.076;2023-03-08T08:35:12;9.10;48.80
46366;DHT22;32073;49.166;8.076;2023-03-08T08:39:13;9.10;48.70
46366;DHT22;32073;49.166;8.076;2023-03-08T08:43:13;9.20;48.80
46366;DHT22;32073;49.166;8.076;2023-03-08T08:47:14;9.10;48.80
46366;DHT22;32073;49.166;8.076;2023-03-08T08:51:15;9.20;49.00
46366;DHT22;32073;49.166;8.076;2023-03-08T08:55:16;9.30;49.00
46366;DHT22;32073;49.166;8.076;2023-03-08T08:59:16;9.30;49.00
46366;DHT22;32073;49.166;8.076;2023-03-08T09:03:17;9.30;49.00
46366;DHT22;32073;49.166;8.076;2023-03-08T09:07:18;9.30;49.00
46366;DHT22;32073;49.166;8.076;2023-03-08T09:11:18;9.30;49.00
46366;DHT22;32073;49.166;8.076;2023-03-08T09:15:19;9.30;49.10
46366;DHT22;32073;49.166;8.076;2023-03-08T09:19:21;9.20;49.10
46366;DHT22;32073;49.166;8.076;2023-03-08T09:23:21;9.20;49.20
46366;DHT22;32073;49.166;8.076;2023-03-08T09:27:22;9.20;49.30
46366;DHT22;32073;49.166;8.076;2023-03-08T09:31:22;9.10;49.30
46366;DHT22;32073;49.166;8.076;2023-03-08T09:35:23;9.10;49.40
46366;DHT22;32073;49.166;8.076;2023-03-08T09:39:24;9.10;49.60
46366;DHT22;32073;49.166;8.076;2023-03-08T09:43:43;9.10;49.60
46366;DHT22;32073;49.166;8.076;2023-03-08T09:52:34;9.10;50.40
46366;DHT22;32073;49.166;8.076;2023-03-08T09:56:42;9.10;50.20
46366;DHT22;32073;49.166;8.076;2023-03-08T10:00:46;9.20;50.40
46366;DHT22;32073;49.166;8.076;2023-03-08T10:09:29;9.30;50.50
46366;DHT22;32073;49.166;8.076;2023-03-08T10:13:35;9.30;51.20
46366;DHT22;32073;49.166;8.076;2023-03-08T10:17:59;9.30;50.80
46366;DHT22;32073;49.166;8.076;2023-03-08T10:22:12;9.50;51.60
46366;DHT22;32073;49.166;8.076;2023-03-08T10:26:15;9.50;51.40
46366;DHT22;32073;49.166;8.076;2023-03-08T10:30:19;9.60;51.20
46366;DHT22;32073;49.166;8.076;2023-03-08T10:34:28;9.70;51.40
46366;DHT22;32073;49.166;8.076;2023-03-08T10:38:32;9.70;51.70
46366;DHT22;32073;49.166;8.076;2023-03-08T10:42:34;9.80;51.60
46366;DHT22;32073;49.166;8.076;2023-03-08T10:46:45;9.80;51.60
46366;DHT22;32073;49.166;8.076;2023-03-08T10:50:59;9.90;52.50
46366;DHT22;32073;49.166;8.076;2023-03-08T10:59:29;10.00;52.50
46366;DHT22;32073;49.166;8.076;2023-03-08T11:03:33;10.00;53.30
46366;DHT22;32073;49.166;8.076;2023-03-08T11:07:34;10.10;52.50
46366;DHT22;32073;49.166;8.076;2023-03-08T11:11:41;10.20;52.70
46366;DHT22;32073;49.166;8.076;2023-03-08T11:15:46;10.30;54.20
46366;DHT22;32073;49.166;8.076;2023-03-08T11:20:17;10.40;53.60
46366;DHT22;32073;49.166;8.076;2023-03-08T11:29:12;10.70;54.50
46366;DHT22;32073;49.166;8.076;2023-03-08T11:42:47;11.10;56.30
46366;DHT22;32073;49.166;8.076;2023-03-08T11:47:22;11.30;55.80
46366;DHT22;32073;49.166;8.076;2023-03-08T11:51:43;11.40;56.00
46366;DHT22;32073;49.166;8.076;2023-03-08T11:56:10;11.60;56.20
46366;DHT22;32073;49.166;8.076;2023-03-08T12:00:27;11.70;56.10
46366;DHT22;32073;49.166;8.076;2023-03-08T12:04:36;11.80;55.50
46366;DHT22;32073;49.166;8.076;2023-03-08T12:09:04;11.90;55.90
46366;DHT22;32073;49.166;8.076;2023-03-08T12:13:19;12.00;56.10
46366;DHT22;32073;49.166;8.076;2023-03-08T12:17:29;12.10;57.10
46366;DHT22;32073;49.166;8.076;2023-03-08T12:21:47;12.20;56.30
46366;DHT22;32073;49.166;8.076;2023-03-08T12:30:43;12.40;56.70
46366;DHT22;32073;49.166;8.076;2023-03-08T12:35:33;12.60;57.30
46366;DHT22;32073;49.166;8.076;2023-03-08T12:39:35;12.80;57.30
46366;DHT22;32073;49.166;8.076;2023-03-08T12:43:36;13.00;56.30
46366;DHT22;32073;49.166;8.076;2023-03-08T12:47:38;13.10;56.40
46366;DHT22;32073;49.166;8.076;2023-03-08T12:51:40;13.30;56.70
46366;DHT22;32073;49.166;8.076;2023-03-08T12:55:40;13.30;56.70
46366;DHT22;32073;49.166;8.076;2023-03-08T12:59:43;13.50;56.70
46366;DHT22;32073;49.166;8.076;2023-03-08T13:03:44;13.50;56.80
46366;DHT22;32073;49.166;8.076;2023-03-08T13:24:46;13.80;57.30
46366;DHT22;32073;49.166;8.076;2023-03-08T13:28:52;13.80;57.10
46366;DHT22;32073;49.166;8.076;2023-03-08T13:32:55;13.80;56.70
46366;DHT22;32073;49.166;8.076;2023-03-08T13:36:56;13.80;56.70
46366;DHT22;32073;49.166;8.076;2023-03-08T13:40:58;13.80;56.80
46366;DHT22;32073;49.166;8.076;2023-03-08T13:45:16;13.80;57.00
46366;DHT22;32073;49.166;8.076;2023-03-08T13:49:27;13.80;57.90
46366;DHT22;32073;49.166;8.076;2023-03-08T13:53:35;13.80;57.30
46366;DHT22;32073;49.166;8.076;2023-03-08T13:57:38;13.80;57.90
46366;DHT22;32073;49.166;8.076;2023-03-08T14:01:46;13.80;57.50
46366;DHT22;32073;49.166;8.076;2023-03-08T14:05:50;13.80;58.00
46366;DHT22;32073;49.166;8.076;2023-03-08T14:09:52;13.90;57.70
46366;DHT22;32073;49.166;8.076;2023-03-08T14:13:54;13.90;57.80
46366;DHT22;32073;49.166;8.076;2023-03-08T14:17:56;13.90;57.80
46366;DHT22;32073;49.166;8.076;2023-03-08T14:21:59;14.10;57.80
46366;DHT22;32073;49.166;8.076;2023-03-08T14:26:02;14.10;57.90
46366;DHT22;32073;49.166;8.076;2023-03-08T14:34:34;14.20;58.40
46366;DHT22;32073;49.166;8.076;2023-03-08T14:38:35;14.30;58.70
46366;DHT22;32073;49.166;8.076;2023-03-08T14:42:41;14.40;58.00
46366;DHT22;32073;49.166;8.076;2023-03-08T14:46:47;14.50;58.30
46366;DHT22;32073;49.166;8.076;2023-03-08T14:55:03;14.70;58.00
46366;DHT22;32073;49.166;8.076;2023-03-08T14:59:04;14.60;57.70
46366;DHT22;32073;49.166;8.076;2023-03-08T15:03:05;14.70;57.70
46366;DHT22;32073;49.166;8.076;2023-03-08T15:07:06;14.70;57.60
46366;DHT22;32073;49.166;8.076;2023-03-08T15:11:07;14.80;57.60
46366;DHT22;32073;49.166;8.076;2023-03-08T15:15:11;14.90;57.70
46366;DHT22;32073;49.166;8.076;2023-03-08T15:19:13;14.90;57.80
46366;DHT22;32073;49.166;8.076;2023-03-08T15:23:25;15.00;57.60
46366;DHT22;32073;49.166;8.076;2023-03-08T15:27:27;15.00;57.90
46366;DHT22;32073;49.166;8.076;2023-03-08T15:31:30;15.00;57.40
46366;DHT22;32073;49.166;8.076;2023-03-08T15:35:31;15.00;57.40
46366;DHT22;32073;49.166;8.076;2023-03-08T15:39:31;15.00;57.30
46366;DHT22;32073;49.166;8.076;2023-03-08T15:43:32;15.00;57.20
46366;DHT22;32073;49.166;8.076;2023-03-08T15:47:33;15.00;57.20
46366;DHT22;32073;49.166;8.076;2023-03-08T15:51:35;15.00;57.20
46366;DHT22;32073;49.166;8.076;2023-03-08T15:55:37;14.90;57.10
46366;DHT22;32073;49.166;8.076;2023-03-08T15:59:39;14.90;57.20
46366;DHT22;32073;49.166;8.076;2023-03-08T16:03:40;14.90;57.30
46366;DHT22;32073;49.166;8.076;2023-03-08T16:07:41;14.80;57.20
46366;DHT22;32073;49.166;8.076;2023-03-08T16:11:42;14.80;57.30
46366;DHT22;32073;49.166;8.076;2023-03-08T16:15:43;14.80;57.30
46366;DHT22;32073;49.166;8.076;2023-03-08T16:19:44;14.80;57.30
46366;DHT22;32073;49.166;8.076;2023-03-08T16:23:45;14.80;57.50
46366;DHT22;32073;49.166;8.076;2023-03-08T16:27:45;14.80;57.50
46366;DHT22;32073;49.166;8.076;2023-03-08T16:31:46;14.80;57.60
46366;DHT22;32073;49.166;8.076;2023-03-08T16:35:48;14.80;57.60
46366;DHT22;32073;49.166;8.076;2023-03-08T16:39:50;14.80;57.70
46366;DHT22;32073;49.166;8.076;2023-03-08T16:43:52;14.80;57.60
46366;DHT22;32073;49.166;8.076;2023-03-08T16:47:53;14.80;57.60
46366;DHT22;32073;49.166;8.076;2023-03-08T16:51:54;14.80;58.30
46366;DHT22;32073;49.166;8.076;2023-03-08T16:55:55;14.80;57.70
46366;DHT22;32073;49.166;8.076;2023-03-08T16:59:56;14.80;57.60
46366;DHT22;32073;49.166;8.076;2023-03-08T17:03:57;14.80;57.70
46366;DHT22;32073;49.166;8.076;2023-03-08T17:07:58;14.80;57.60
46366;DHT22;32073;49.166;8.076;2023-03-08T17:11:59;14.90;57.80
46366;DHT22;32073;49.166;8.076;2023-03-08T17:16:00;14.80;57.70
46366;DHT22;32073;49.166;8.076;2023-03-08T17:20:01;14.90;57.80
46366;DHT22;32073;49.166;8.076;2023-03-08T17:24:06;14.90;57.80
46366;DHT22;32073;49.166;8.076;2023-03-08T17:28:08;14.90;58.00
46366;DHT22;32073;49.166;8.076;2023-03-08T17:32:09;15.00;58.00
46366;DHT22;32073;49.166;8.076;2023-03-08T17:36:11;14.90;57.90
46366;DHT22;32073;49.166;8.076;2023-03-08T17:40:13;14.80;57.90
46366;DHT22;32073;49.166;8.076;2023-03-08T17:44:14;14.80;57.90
46366;DHT22;32073;49.166;8.076;2023-03-08T17:48:15;14.80;57.90
46366;DHT22;32073;49.166;8.076;2023-03-08T17:52:15;14.80;58.20
46366;DHT22;32073;49.166;8.076;2023-03-08T17:56:19;14.80;58.30
46366;DHT22;32073;49.166;8.076;2023-03-08T18:00:21;14.80;58.60
46366;DHT22;32073;49.166;8.076;2023-03-08T18:04:22;14.70;58.70
46366;DHT22;32073;49.166;8.076;2023-03-08T18:08:23;14.70;58.80
46366;DHT22;32073;49.166;8.076;2023-03-08T18:12:23;14.70;58.80
46366;DHT22;32073;49.166;8.076;2023-03-08T18:16:24;14.60;58.90
46366;DHT22;32073;49.166;8.076;2023-03-08T18:20:25;14.60;59.60
46366;DHT22;32073;49.166;8.076;2023-03-08T18:24:26;14.60;59.00
46366;DHT22;32073;49.166;8.076;2023-03-08T18:28:27;14.60;59.10
46366;DHT22;32073;49.166;8.076;2023-03-08T18:32:27;14.50;59.10
46366;DHT22;32073;49.166;8.076;2023-03-08T18:36:28;14.50;59.10
46366;DHT22;32073;49.166;8.076;2023-03-08T18:40:29;14.50;59.30
46366;DHT22;32073;49.166;8.076;2023-03-08T18:44:30;14.50;59.40
46366;DHT22;32073;49.166;8.076;2023-03-08T18:48:31;14.40;59.50
46366;DHT22;32073;49.166;8.076;2023-03-08T18:52:31;14.40;59.60
46366;DHT22;32073;49.166;8.076;2023-03-08T18:56:32;14.40;59.60
46366;DHT22;32073;49.166;8.076;2023-03-08T19:00:33;14.50;59.80
46366;DHT22;32073;49.166;8.076;2023-03-08T19:04:40;14.40;59.90
46366;DHT22;32073;49.166;8.076;2023-03-08T19:08:41;14.40;60.30
46366;DHT22;32073;49.166;8.076;2023-03-08T19:12:42;14.40;60.20
46366;DHT22;32073;49.166;8.076;2023-03-08T19:16:43;14.40;60.30
46366;DHT22;32073;49.166;8.076;2023-03-08T19:20:44;14.40;60.60
46366;DHT22;32073;49.166;8.076;2023-03-08T19:24:44;14.30;60.40
46366;DHT22;32073;49.166;8.076;2023-03-08T19:28:46;14.20;60.20
46366;DHT22;32073;49.166;8.076;2023-03-08T19:32:47;14.00;60.00
46366;DHT22;32073;49.166;8.076;2023-03-08T19:36:49;13.90;60.10
46366;DHT22;32073;49.166;8.076;2023-03-08T19:40:50;13.80;60.30
46366;DHT22;32073;49.166;8.076;2023-03-08T19:44:50;13.60;60.20
46366;DHT22;32073;49.166;8.076;2023-03-08T19:48:52;13.50;60.30
46366;DHT22;32073;49.166;8.076;2023-03-08T19:52:52;13.50;60.40
46366;DHT22;32073;49.166;8.076;2023-03-08T19:56:53;13.40;60.50
46366;DHT22;32073;49.166;8.076;2023-03-08T20:01:03;13.40;60.70
46366;DHT22;32073;49.166;8.076;2023-03-08T20:05:05;13.30;61.20
46366;DHT22;32073;49.166;8.076;2023-03-08T20:09:08;13.30;60.70
46366;DHT22;32073;49.166;8.076;2023-03-08T20:13:10;13.20;61.00
46366;DHT22;32073;49.166;8.076;2023-03-08T20:17:10;13.20;61.00
46366;DHT22;32073;49.166;8.076;2023-03-08T20:21:11;13.20;61.20
46366;DHT22;32073;49.166;8.076;2023-03-08T20:25:11;13.30;61.40
46366;DHT22;32073;49.166;8.076;2023-03-08T20:29:12;13.30;61.50
46366;DHT22;32073;49.166;8.076;2023-03-08T20:33:13;13.30;61.70
46366;DHT22;32073;49.166;8.076;2023-03-08T20:37:14;13.30;62.50
46366;DHT22;32073;49.166;8.076;2023-03-08T20:41:19;13.30;62.10
46366;DHT22;32073;49.166;8.076;2023-03-08T20:45:21;13.40;62.30
46366;DHT22;32073;49.166;8.076;2023-03-08T20:49:23;13.40;62.10
46366;DHT22;32073;49.166;8.076;2023-03-08T20:53:26;13.40;62.20
46366;DHT22;32073;49.166;8.076;2023-03-08T20:57:28;13.50;62.40
46366;DHT22;32073;49.166;8.076;2023-03-08T21:01:30;13.50;62.50
46366;DHT22;32073;49.166;8.076;2023-03-08T21:05:34;13.50;62.70
46366;DHT22;32073;49.166;8.076;2023-03-08T21:09:35;13.60;63.00
46366;DHT22;32073;49.166;8.076;2023-03-08T21:13:36;13.60;62.80
46366;DHT22;32073;49.166;8.076;2023-03-08T21:17:37;13.60;62.70
46366;DHT22;32073;49.166;8.076;2023-03-08T21:21:43;13.60;62.80
46366;DHT22;32073;49.166;8.076;2023-03-08T21:25:47;13.60;63.10
46366;DHT22;32073;49.166;8.076;2023-03-08T21:29:49;13.60;62.40
46366;DHT22;32073;49.166;8.076;2023-03-08T21:33:49;13.60;62.50
46366;DHT22;32073;49.166;8.076;2023-03-08T21:37:50;13.50;62.60
46366;DHT22;32073;49.166;8.076;2023-03-08T21:41:51;13.70;62.90
46366;DHT22;32073;49.166;8.076;2023-03-08T21:45:54;13.60;63.00
46366;DHT22;32073;49.166;8.076;2023-03-08T21:49:55;13.50;62.90
46366;DHT22;32073;49.166;8.076;2023-03-08T21:53:57;13.50;62.90
46366;DHT22;32073;49.166;8.076;2023-03-08T21:57:57;13.50;63.00
